createdAt,value
2018-12-15T00:00:40.935Z,2.50
2018-12-15T00:03:12.031Z,2.50
2018-12-15T00:05:43.118Z,2.60
2018-12-15T00:08:12.502Z,2.60
2018-12-15T00:10:41.598Z,2.50
2018-12-15T00:13:10.616Z,2.70
2018-12-15T00:15:39.710Z,2.70
2018-12-15T00:18:08.852Z,2.80
2018-12-15T00:20:38.053Z,2.80
2018-12-15T00:23:07.362Z,2.70
2018-12-15T00:25:37.322Z,2.70
2018-12-15T00:28:06.551Z,2.70
2018-12-15T00:30:35.666Z,2.80
2018-12-15T00:33:05.079Z,2.70
2018-12-15T00:35:34.146Z,2.80
2018-12-15T00:38:03.370Z,2.80
2018-12-15T00:40:32.525Z,2.90
2018-12-15T00:43:01.555Z,2.80
2018-12-15T00:45:30.591Z,2.60
2018-12-15T00:47:59.622Z,2.70
2018-12-15T00:50:28.673Z,2.80
2018-12-15T00:52:57.768Z,2.90
2018-12-15T00:55:26.858Z,2.70
2018-12-15T00:57:55.936Z,2.60
2018-12-15T01:00:24.998Z,2.80
2018-12-15T01:02:54.111Z,2.80
2018-12-15T01:05:23.161Z,2.70
2018-12-15T01:07:52.203Z,2.80
2018-12-15T01:10:21.240Z,2.70
2018-12-15T01:12:50.339Z,2.70
2018-12-15T01:15:24.014Z,2.70
2018-12-15T01:17:53.058Z,2.70
2018-12-15T01:20:22.998Z,2.50
2018-12-15T01:22:52.016Z,2.50
2018-12-15T01:25:21.132Z,2.60
2018-12-15T01:27:50.382Z,2.60
2018-12-15T01:30:19.419Z,2.60
2018-12-15T01:32:48.480Z,2.70
2018-12-15T01:35:17.724Z,2.70
2018-12-15T01:37:46.794Z,2.60
2018-12-15T01:40:16.042Z,2.50
2018-12-15T01:42:45.330Z,2.50
2018-12-15T01:45:14.382Z,2.70
2018-12-15T01:47:43.380Z,2.60
2018-12-15T01:50:12.608Z,2.50
2018-12-15T01:52:41.638Z,2.60
2018-12-15T01:55:10.882Z,2.50
2018-12-15T01:57:39.961Z,2.60
2018-12-15T02:00:09.290Z,2.40
2018-12-15T02:02:40.442Z,2.20
2018-12-15T02:05:09.587Z,2.20
2018-12-15T02:07:38.610Z,2.40
2018-12-15T02:10:09.322Z,2.20
2018-12-15T02:12:38.333Z,2.20
2018-12-15T02:15:08.142Z,2.20
2018-12-15T02:17:37.298Z,2.30
2018-12-15T02:20:06.776Z,2.30
2018-12-15T02:22:35.898Z,2.00
2018-12-15T02:25:05.452Z,2.00
2018-12-15T02:27:34.810Z,2.10
2018-12-15T02:30:04.223Z,2.10
2018-12-15T02:32:35.678Z,2.20
2018-12-15T02:35:05.823Z,2.00
2018-12-15T02:37:36.819Z,2.10
2018-12-15T02:40:07.237Z,1.90
2018-12-15T02:42:36.524Z,2.00
2018-12-15T02:45:05.921Z,2.10
2018-12-15T02:47:41.445Z,2.00
2018-12-15T02:50:07.097Z,2.00
2018-12-15T02:52:37.020Z,2.00
2018-12-15T02:55:06.283Z,2.00
2018-12-15T02:57:35.435Z,2.30
2018-12-15T03:00:05.174Z,2.40
2018-12-15T03:02:36.521Z,2.40
2018-12-15T03:05:06.245Z,2.50
2018-12-15T03:07:35.647Z,2.60
2018-12-15T03:10:05.775Z,2.60
2018-12-15T03:12:35.159Z,2.50
2018-12-15T03:15:04.591Z,2.50
2018-12-15T03:17:33.622Z,2.60
2018-12-15T03:20:03.325Z,2.60
2018-12-15T03:22:32.366Z,2.60
2018-12-15T03:25:01.514Z,2.50
2018-12-15T03:27:30.861Z,2.30
2018-12-15T03:29:59.988Z,2.40
2018-12-15T03:32:29.186Z,2.40
2018-12-15T03:34:58.209Z,2.50
2018-12-15T03:37:27.295Z,2.60
2018-12-15T03:39:56.556Z,2.30
2018-12-15T03:42:25.870Z,2.40
2018-12-15T03:44:54.849Z,2.20
2018-12-15T03:47:23.891Z,2.20
2018-12-15T03:49:52.897Z,2.20
2018-12-15T03:52:22.023Z,2.20
2018-12-15T03:54:51.183Z,2.20
2018-12-15T03:57:20.267Z,2.20
2018-12-15T03:59:49.434Z,2.20
2018-12-15T04:02:19.200Z,2.40
2018-12-15T04:04:48.373Z,2.30
2018-12-15T04:07:17.407Z,2.30
2018-12-15T04:09:46.409Z,2.20
2018-12-15T04:12:15.502Z,2.20
2018-12-15T04:14:44.624Z,2.30
2018-12-15T04:17:13.700Z,2.40
2018-12-15T04:19:42.721Z,2.50
2018-12-15T04:22:18.639Z,2.60
2018-12-15T04:24:47.974Z,2.50
2018-12-15T04:27:17.248Z,2.60
2018-12-15T04:29:48.442Z,2.60
2018-12-15T04:32:17.497Z,2.30
2018-12-15T04:34:46.535Z,2.40
2018-12-15T04:37:15.675Z,2.10
2018-12-15T04:39:44.658Z,2.30
2018-12-15T04:42:14.989Z,2.50
2018-12-15T04:44:44.015Z,2.40
2018-12-15T04:47:14.137Z,2.30
2018-12-15T04:49:43.485Z,2.40
2018-12-15T04:52:12.543Z,2.40
2018-12-15T04:54:41.593Z,2.40
2018-12-15T04:57:10.687Z,2.40
2018-12-15T04:59:39.722Z,2.50
2018-12-15T05:02:08.762Z,2.40
2018-12-15T05:04:37.893Z,2.40
2018-12-15T05:07:07.282Z,2.40
2018-12-15T05:09:36.629Z,2.40
2018-12-15T05:12:05.873Z,2.20
2018-12-15T05:14:34.945Z,2.10
2018-12-15T05:17:04.029Z,2.20
2018-12-15T05:19:33.063Z,2.10
2018-12-15T05:22:02.800Z,2.20
2018-12-15T05:24:31.826Z,2.10
2018-12-15T05:27:01.070Z,2.20
2018-12-15T05:29:30.088Z,2.00
2018-12-15T05:31:59.161Z,2.10
2018-12-15T05:34:28.335Z,2.10
2018-12-15T05:36:57.389Z,2.20
2018-12-15T05:39:26.420Z,2.10
2018-12-15T05:41:55.451Z,2.10
2018-12-15T05:44:24.563Z,2.30
2018-12-15T05:46:53.545Z,2.10
2018-12-15T05:49:22.647Z,2.30
2018-12-15T05:51:51.694Z,2.20
2018-12-15T05:54:20.921Z,2.10
2018-12-15T05:56:49.951Z,2.20
2018-12-15T05:59:19.199Z,2.10
2018-12-15T06:01:48.263Z,2.20
2018-12-15T06:04:18.469Z,2.30
2018-12-15T06:06:47.693Z,2.50
2018-12-15T06:09:16.754Z,2.30
2018-12-15T06:11:45.981Z,2.50
2018-12-15T06:14:15.045Z,2.50
2018-12-15T06:16:44.027Z,2.50
2018-12-15T06:19:13.092Z,2.40
2018-12-15T06:21:42.118Z,2.50
2018-12-15T06:24:11.319Z,2.50
2018-12-15T06:26:40.329Z,2.50
2018-12-15T06:29:09.363Z,2.60
2018-12-15T06:31:38.435Z,2.50
2018-12-15T06:34:07.601Z,2.40
2018-12-15T06:36:36.641Z,2.30
2018-12-15T06:39:07.466Z,2.50
2018-12-15T06:41:36.465Z,2.60
2018-12-15T06:44:05.517Z,2.80
2018-12-15T06:46:34.701Z,2.60
2018-12-15T06:49:03.764Z,2.60
2018-12-15T06:51:32.772Z,2.50
2018-12-15T06:54:02.225Z,2.70
2018-12-15T06:56:31.364Z,2.60
2018-12-15T06:59:00.468Z,2.70
2018-12-15T07:01:29.552Z,2.70
2018-12-15T07:03:58.608Z,2.60
2018-12-15T07:06:27.615Z,2.70
2018-12-15T07:08:56.726Z,2.70
2018-12-15T07:11:25.844Z,2.60
2018-12-15T07:13:54.940Z,2.70
2018-12-15T07:16:24.454Z,2.70
2018-12-15T07:18:53.524Z,2.60
2018-12-15T07:21:22.552Z,2.60
2018-12-15T07:23:51.794Z,2.60
2018-12-15T07:26:20.974Z,2.40
2018-12-15T07:28:49.978Z,2.40
2018-12-15T07:31:18.976Z,2.20
2018-12-15T07:33:48.006Z,2.20
2018-12-15T07:36:17.063Z,2.30
2018-12-15T07:38:46.343Z,2.30
2018-12-15T07:41:15.631Z,2.30
2018-12-15T07:43:44.632Z,2.50
2018-12-15T07:46:13.665Z,2.60
2018-12-15T07:48:42.685Z,2.90
2018-12-15T07:51:11.734Z,2.70
2018-12-15T07:53:44.263Z,2.70
2018-12-15T07:56:13.249Z,2.90
2018-12-15T07:58:42.306Z,3.00
2018-12-15T08:01:11.345Z,2.90
2018-12-15T08:03:40.386Z,3.00
2018-12-15T08:06:09.590Z,3.10
2018-12-15T08:08:38.972Z,3.00
2018-12-15T08:11:13.362Z,2.90
2018-12-15T08:13:46.583Z,2.90
2018-12-15T08:16:15.986Z,3.10
2018-12-15T08:18:45.158Z,3.10
2018-12-15T08:21:14.153Z,2.80
2018-12-15T08:23:43.209Z,3.00
2018-12-15T08:26:12.231Z,3.10
2018-12-15T08:28:42.426Z,3.10
2018-12-15T08:31:11.468Z,3.10
2018-12-15T08:33:40.514Z,3.20
2018-12-15T08:36:09.772Z,3.20
2018-12-15T08:38:38.790Z,3.30
2018-12-15T08:41:07.987Z,3.40
2018-12-15T08:43:37.019Z,3.00
2018-12-15T08:46:08.321Z,3.30
2018-12-15T08:48:37.833Z,3.60
2018-12-15T08:51:07.064Z,3.50
2018-12-15T08:53:36.346Z,3.70
2018-12-15T08:56:05.464Z,3.80
2018-12-15T08:58:34.716Z,3.50
2018-12-15T09:01:03.790Z,3.40
2018-12-15T09:03:32.998Z,3.30
2018-12-15T09:06:02.043Z,3.30
2018-12-15T09:08:31.362Z,3.20
2018-12-15T09:11:00.851Z,2.80
2018-12-15T09:13:30.402Z,2.70
2018-12-15T09:15:59.514Z,2.80
2018-12-15T09:18:28.661Z,2.80
2018-12-15T09:20:57.746Z,2.90
2018-12-15T09:23:27.029Z,2.90
2018-12-15T09:25:56.573Z,3.00
2018-12-15T09:28:25.706Z,3.00
2018-12-15T09:30:54.842Z,3.20
2018-12-15T09:33:24.004Z,3.30
2018-12-15T09:35:53.291Z,3.20
2018-12-15T09:38:22.343Z,3.00
2018-12-15T09:40:51.367Z,3.00
2018-12-15T09:43:20.423Z,3.00
2018-12-15T09:45:49.515Z,3.00
2018-12-15T09:48:18.557Z,2.90
2018-12-15T09:50:48.549Z,3.00
2018-12-15T09:53:17.566Z,3.30
2018-12-15T09:55:46.932Z,3.40
2018-12-15T09:58:16.120Z,3.30
2018-12-15T10:00:45.281Z,3.20
2018-12-15T10:03:14.280Z,3.20
2018-12-15T10:05:43.517Z,3.30
2018-12-15T10:08:12.547Z,3.30
2018-12-15T10:10:41.665Z,3.40
2018-12-15T10:13:10.930Z,3.60
2018-12-15T10:15:41.372Z,3.50
2018-12-15T10:18:10.661Z,3.50
2018-12-15T10:20:39.770Z,3.50
2018-12-15T10:23:08.769Z,3.50
2018-12-15T10:25:38.066Z,3.40
2018-12-15T10:28:07.111Z,3.40
2018-12-15T10:30:41.575Z,3.30
2018-12-15T10:33:10.962Z,3.20
2018-12-15T10:35:40.597Z,3.00
2018-12-15T10:38:09.735Z,3.00
2018-12-15T10:40:39.050Z,2.90
2018-12-15T10:43:09.152Z,2.90
2018-12-15T10:45:38.190Z,3.20
2018-12-15T10:48:07.732Z,3.10
2018-12-15T10:50:37.247Z,3.20
2018-12-15T10:53:06.407Z,3.10
2018-12-15T10:55:35.828Z,3.20
2018-12-15T10:58:05.518Z,3.30
2018-12-15T11:00:41.805Z,3.30
2018-12-15T11:03:11.124Z,3.30
2018-12-15T11:05:40.552Z,3.30
2018-12-15T11:08:10.678Z,3.30
2018-12-15T11:10:39.820Z,3.30
2018-12-15T11:13:09.335Z,3.40
2018-12-15T11:15:38.476Z,3.20
2018-12-15T11:18:07.602Z,3.20
2018-12-15T11:20:36.775Z,3.20
2018-12-15T11:23:06.721Z,3.30
2018-12-15T11:25:35.893Z,3.40
2018-12-15T11:28:04.967Z,3.40
2018-12-15T11:30:34.127Z,3.60
2018-12-15T11:33:03.258Z,3.40
2018-12-15T11:35:34.264Z,3.30
2018-12-15T11:38:03.429Z,3.30
2018-12-15T11:40:33.743Z,3.30
2018-12-15T11:43:02.906Z,3.30
2018-12-15T11:45:33.191Z,3.40
2018-12-15T11:48:02.442Z,3.60
2018-12-15T11:50:33.381Z,3.50
2018-12-15T11:53:02.633Z,3.30
2018-12-15T11:55:32.596Z,3.20
2018-12-15T11:58:01.933Z,3.00
2018-12-15T12:00:31.064Z,3.00
2018-12-15T12:03:00.436Z,3.00
2018-12-15T12:05:29.577Z,2.90
2018-12-15T12:07:59.106Z,3.10
2018-12-15T12:10:28.259Z,3.40
2018-12-15T12:12:57.683Z,3.50
2018-12-15T12:15:26.835Z,3.50
2018-12-15T12:17:55.930Z,3.20
2018-12-15T12:20:25.010Z,3.20
2018-12-15T12:22:54.197Z,3.50
2018-12-15T12:25:25.396Z,3.50
2018-12-15T12:27:56.400Z,3.20
2018-12-15T12:30:25.756Z,3.40
2018-12-15T12:32:56.047Z,3.40
2018-12-15T12:35:25.221Z,3.60
2018-12-15T12:37:54.535Z,3.30
2018-12-15T12:40:23.622Z,3.30
2018-12-15T12:42:52.926Z,3.30
2018-12-15T12:45:22.085Z,3.20
2018-12-15T12:47:51.266Z,3.10
2018-12-15T12:50:20.331Z,3.30
2018-12-15T12:52:50.506Z,3.40
2018-12-15T12:55:19.538Z,3.10
2018-12-15T12:57:48.750Z,3.00
2018-12-15T13:00:17.896Z,3.00
2018-12-15T13:02:47.327Z,3.10
2018-12-15T13:05:16.484Z,3.00
2018-12-15T13:07:45.631Z,3.10
2018-12-15T13:10:14.942Z,3.00
2018-12-15T13:12:43.981Z,2.90
2018-12-15T13:15:13.220Z,3.20
2018-12-15T13:17:42.193Z,3.20
2018-12-15T13:20:11.266Z,3.10
2018-12-15T13:22:40.292Z,3.30
2018-12-15T13:25:09.317Z,3.10
2018-12-15T13:27:38.490Z,3.20
2018-12-15T13:30:08.634Z,3.10
2018-12-15T13:32:37.714Z,3.00
2018-12-15T13:35:07.002Z,3.00
2018-12-15T13:37:36.210Z,3.20
2018-12-15T13:40:06.182Z,3.30
2018-12-15T13:42:35.543Z,3.10
2018-12-15T13:45:06.059Z,2.90
2018-12-15T13:47:35.310Z,3.00
2018-12-15T13:50:10.092Z,2.90
2018-12-15T13:52:38.854Z,2.90
2018-12-15T13:55:08.050Z,3.00
2018-12-15T13:57:37.445Z,3.10
2018-12-15T14:00:07.065Z,3.20
2018-12-15T14:02:36.698Z,3.00
2018-12-15T14:05:06.308Z,2.70
2018-12-15T14:07:35.549Z,2.60
2018-12-15T14:10:05.704Z,2.70
2018-12-15T14:12:34.814Z,2.60
2018-12-15T14:15:04.522Z,2.40
2018-12-15T14:17:33.719Z,2.30
2018-12-15T14:20:02.895Z,2.30
2018-12-15T14:22:32.093Z,2.40
2018-12-15T14:25:01.282Z,2.40
2018-12-15T14:27:30.581Z,2.30
2018-12-15T14:29:59.883Z,2.20
2018-12-15T14:32:28.905Z,2.20
2018-12-15T14:34:58.178Z,2.20
2018-12-15T14:37:27.337Z,2.10
2018-12-15T14:39:56.370Z,2.00
2018-12-15T14:42:25.437Z,1.90
2018-12-15T14:44:54.509Z,2.00
2018-12-15T14:47:23.534Z,2.00
2018-12-15T14:49:52.547Z,2.00
2018-12-15T14:52:21.557Z,2.00
2018-12-15T14:54:50.539Z,2.10
2018-12-15T14:57:23.846Z,2.10
2018-12-15T14:59:53.385Z,2.10
2018-12-15T15:02:22.857Z,2.00
2018-12-15T15:04:51.936Z,2.10
2018-12-15T15:07:21.003Z,2.10
2018-12-15T15:09:50.257Z,2.20
2018-12-15T15:12:19.254Z,2.10
2018-12-15T15:14:48.256Z,2.00
2018-12-15T15:17:17.298Z,1.90
2018-12-15T15:19:46.320Z,2.00
2018-12-15T15:22:15.353Z,1.90
2018-12-15T15:24:44.432Z,1.90
2018-12-15T15:27:13.516Z,1.90
2018-12-15T15:29:42.597Z,2.00
2018-12-15T15:32:11.602Z,2.00
2018-12-15T15:34:40.737Z,2.00
2018-12-15T15:37:09.742Z,1.90
2018-12-15T15:39:38.805Z,2.10
2018-12-15T15:42:07.854Z,2.10
2018-12-15T15:44:36.913Z,2.20
2018-12-15T15:47:06.054Z,2.00
2018-12-15T15:49:35.212Z,1.90
2018-12-15T15:52:04.322Z,1.80
2018-12-15T15:54:33.541Z,1.70
2018-12-15T15:57:02.973Z,1.60
2018-12-15T15:59:32.578Z,1.60
2018-12-15T16:02:02.899Z,1.70
2018-12-15T16:04:32.729Z,1.60
2018-12-15T16:07:01.907Z,1.70
2018-12-15T16:09:30.978Z,1.60
2018-12-15T16:12:00.078Z,1.70
2018-12-15T16:14:29.264Z,1.50
2018-12-15T16:16:58.464Z,1.50
2018-12-15T16:19:27.686Z,1.40
2018-12-15T16:21:56.771Z,1.40
2018-12-15T16:24:25.953Z,1.40
2018-12-15T16:26:54.989Z,1.50
2018-12-15T16:29:24.365Z,1.50
2018-12-15T16:31:53.544Z,1.50
2018-12-15T16:34:22.640Z,1.60
2018-12-15T16:36:51.662Z,1.50
2018-12-15T16:39:21.934Z,1.50
2018-12-15T16:41:52.026Z,1.40
2018-12-15T16:44:21.163Z,1.50
2018-12-15T16:46:50.317Z,1.50
2018-12-15T16:49:19.465Z,1.50
2018-12-15T16:51:48.611Z,1.60
2018-12-15T16:54:17.822Z,1.50
2018-12-15T16:56:46.852Z,1.50
2018-12-15T16:59:15.904Z,1.50
2018-12-15T17:01:45.080Z,1.50
2018-12-15T17:04:14.137Z,1.40
2018-12-15T17:06:43.802Z,1.60
2018-12-15T17:09:12.956Z,1.50
2018-12-15T17:11:42.336Z,1.60
2018-12-15T17:14:11.493Z,1.50
2018-12-15T17:16:40.634Z,1.40
2018-12-15T17:19:09.862Z,1.50
2018-12-15T17:21:39.232Z,1.30
2018-12-15T17:24:08.292Z,1.40
2018-12-15T17:26:37.441Z,1.50
2018-12-15T17:29:06.708Z,1.60
2018-12-15T17:31:37.381Z,1.40
2018-12-15T17:34:06.995Z,1.50
2018-12-15T17:36:36.162Z,1.50
2018-12-15T17:39:08.101Z,1.60
2018-12-15T17:41:39.447Z,1.60
2018-12-15T17:44:09.952Z,1.60
2018-12-15T17:46:40.709Z,1.60
2018-12-15T17:49:09.910Z,1.60
2018-12-15T17:51:40.400Z,1.40
2018-12-15T17:54:09.592Z,1.50
2018-12-15T17:56:38.893Z,1.60
2018-12-15T17:59:07.927Z,1.40
2018-12-15T18:01:37.246Z,1.50
2018-12-15T18:04:06.342Z,1.60
2018-12-15T18:06:35.508Z,1.60
2018-12-15T18:09:07.067Z,1.50
2018-12-15T18:11:38.591Z,1.60
2018-12-15T18:14:08.014Z,1.40
2018-12-15T18:16:37.312Z,1.40
2018-12-15T18:19:06.554Z,1.60
2018-12-15T18:21:35.703Z,1.80
2018-12-15T18:24:04.917Z,1.80
2018-12-15T18:26:34.263Z,1.90
2018-12-15T18:29:03.401Z,2.10
2018-12-15T18:31:32.845Z,2.00
2018-12-15T18:34:02.168Z,1.80
2018-12-15T18:36:31.407Z,1.80
2018-12-15T18:39:02.355Z,1.80
2018-12-15T18:41:33.430Z,1.70
2018-12-15T18:44:02.622Z,1.90
2018-12-15T18:46:31.767Z,1.60
2018-12-15T18:49:01.086Z,1.60
2018-12-15T18:51:30.965Z,1.70
2018-12-15T18:54:00.139Z,1.70
2018-12-15T18:56:29.877Z,1.60
2018-12-15T18:58:59.018Z,1.50
2018-12-15T19:01:28.079Z,1.60
2018-12-15T19:03:57.137Z,1.70
2018-12-15T19:06:26.215Z,1.70
2018-12-15T19:08:55.366Z,1.70
2018-12-15T19:11:24.379Z,1.60
2018-12-15T19:13:53.772Z,1.60
2018-12-15T19:16:24.187Z,1.70
2018-12-15T19:18:53.324Z,1.60
2018-12-15T19:21:23.074Z,1.60
2018-12-15T19:23:52.556Z,1.50
2018-12-15T19:26:21.669Z,1.60
2018-12-15T19:28:50.759Z,1.70
2018-12-15T19:31:19.768Z,1.70
2018-12-15T19:33:48.911Z,1.70
2018-12-15T19:36:18.087Z,2.00
2018-12-15T19:38:47.159Z,2.00
2018-12-15T19:41:17.247Z,1.90
2018-12-15T19:43:46.315Z,1.70
2018-12-15T19:46:15.505Z,1.90
2018-12-15T19:48:44.512Z,2.00
2018-12-15T19:51:15.878Z,2.00
2018-12-15T19:53:47.606Z,1.90
2018-12-15T19:56:17.089Z,1.90
2018-12-15T19:58:46.173Z,1.90
2018-12-15T20:01:15.376Z,1.90
2018-12-15T20:03:44.863Z,2.00
2018-12-15T20:06:14.130Z,1.90
2018-12-15T20:08:43.530Z,1.90
2018-12-15T20:11:12.786Z,1.80
2018-12-15T20:13:41.984Z,1.60
2018-12-15T20:16:11.116Z,1.70
2018-12-15T20:18:40.688Z,1.80
2018-12-15T20:21:10.216Z,1.90
2018-12-15T20:23:39.315Z,2.10
2018-12-15T20:26:08.380Z,2.20
2018-12-15T20:28:38.610Z,2.20
2018-12-15T20:31:07.634Z,2.20
2018-12-15T20:33:36.776Z,1.90
2018-12-15T20:36:06.078Z,1.90
2018-12-15T20:38:35.256Z,1.90
2018-12-15T20:41:04.262Z,1.80
2018-12-15T20:43:33.328Z,1.80
2018-12-15T20:46:02.680Z,1.70
2018-12-15T20:48:31.913Z,1.80
2018-12-15T20:51:01.174Z,1.80
2018-12-15T20:53:30.314Z,1.80
2018-12-15T20:55:59.378Z,1.70
2018-12-15T20:58:28.547Z,1.70
2018-12-15T21:00:57.872Z,1.60
2018-12-15T21:03:27.048Z,1.70
2018-12-15T21:05:56.442Z,1.60
2018-12-15T21:08:25.772Z,1.50
2018-12-15T21:10:54.792Z,1.50
2018-12-15T21:13:23.846Z,1.70
2018-12-15T21:15:56.518Z,1.90
2018-12-15T21:18:26.092Z,1.70
2018-12-15T21:20:55.131Z,1.80
2018-12-15T21:23:24.412Z,1.60
2018-12-15T21:25:53.504Z,1.60
2018-12-15T21:28:22.973Z,1.70
2018-12-15T21:30:52.022Z,1.90
2018-12-15T21:33:21.129Z,1.60
2018-12-15T21:35:50.158Z,1.50
2018-12-15T21:38:19.249Z,1.40
2018-12-15T21:40:48.338Z,1.40
2018-12-15T21:43:17.364Z,1.40
2018-12-15T21:45:46.359Z,1.40
2018-12-15T21:48:15.432Z,1.50
2018-12-15T21:50:44.782Z,1.40
2018-12-15T21:53:13.820Z,1.60
2018-12-15T21:55:42.845Z,1.50
2018-12-15T21:58:11.914Z,1.40
2018-12-15T22:00:40.921Z,1.40
2018-12-15T22:03:10.938Z,1.40
2018-12-15T22:05:40.310Z,1.40
2018-12-15T22:08:09.342Z,1.50
2018-12-15T22:10:38.614Z,1.30
2018-12-15T22:13:07.637Z,1.20
2018-12-15T22:15:36.660Z,1.10
2018-12-15T22:18:05.784Z,1.10
2018-12-15T22:20:35.030Z,1.10
2018-12-15T22:23:04.202Z,1.20
2018-12-15T22:25:33.245Z,1.30
2018-12-15T22:28:02.492Z,1.30
2018-12-15T22:30:31.750Z,1.40
2018-12-15T22:33:01.167Z,1.40
2018-12-15T22:35:30.391Z,1.30
2018-12-15T22:37:59.445Z,1.10
2018-12-15T22:40:28.471Z,1.00
2018-12-15T22:42:57.515Z,1.20
2018-12-15T22:45:26.523Z,1.00
2018-12-15T22:47:55.567Z,1.00
2018-12-15T22:50:24.603Z,1.00
2018-12-15T22:52:53.585Z,0.90
2018-12-15T22:55:22.754Z,1.10
2018-12-15T22:57:51.790Z,1.20
2018-12-15T23:00:20.836Z,1.20
2018-12-15T23:02:51.970Z,1.20
2018-12-15T23:05:21.111Z,1.20
2018-12-15T23:07:50.370Z,0.90
2018-12-15T23:10:19.661Z,0.90
2018-12-15T23:12:48.984Z,0.90
2018-12-15T23:15:17.997Z,0.80
2018-12-15T23:17:47.053Z,0.70
2018-12-15T23:20:16.207Z,0.70
2018-12-15T23:22:45.222Z,0.60
2018-12-15T23:25:14.502Z,0.60
2018-12-15T23:27:43.601Z,0.60
2018-12-15T23:30:12.753Z,0.50
2018-12-15T23:32:42.096Z,0.50
2018-12-15T23:35:11.142Z,0.50
2018-12-15T23:37:40.134Z,0.50
2018-12-15T23:40:09.436Z,0.50
2018-12-15T23:42:38.574Z,0.50
2018-12-15T23:45:07.962Z,0.50
2018-12-15T23:47:36.990Z,0.60
2018-12-15T23:50:06.650Z,0.50
2018-12-15T23:52:35.730Z,0.40
2018-12-15T23:55:04.949Z,0.40
2018-12-15T23:57:34.014Z,0.30
